Time;durP1;ratioP1;P1;durP2;ratioP2;P2;SDS_P1;SDS_P2;PMS_P1;PMS_P2;Temp;Humidity;BMP_temperature;BMP_pressure;BME280_temperature;BME280_humidity;BME280_pressure;Samples;Min_cycle;Max_cycle;Signal;HPM_P1;HPM_P2
2022/03/13 00:00:24;;;;;;;0.90;0.90;;;1.10;1.00;;;;;;5072211;28;20194;-76
2022/03/13 00:02:52;;;;;;;0.83;0.83;;;0.90;1.00;;;;;;5072492;28;20182;-76
2022/03/13 00:05:18;;;;;;;0.90;0.90;;;1.00;1.00;;;;;;5072093;28;20186;-76
2022/03/13 00:07:46;;;;;;;0.90;0.90;;;1.00;1.00;;;;;;5071731;28;20628;-75
2022/03/13 00:10:16;;;;;;;0.80;0.80;;;0.90;1.00;;;;;;5071396;28;20336;-75
2022/03/13 00:12:41;;;;;;;0.90;0.90;;;0.90;1.00;;;;;;5071368;28;20181;-74
2022/03/13 00:15:12;;;;;;;0.80;0.80;;;0.80;1.00;;;;;;5071812;28;20586;-74
2022/03/13 00:17:37;;;;;;;0.80;0.80;;;0.80;99.90;;;;;;5071752;28;20210;-74
2022/03/13 00:20:05;;;;;;;0.80;0.80;;;0.80;99.90;;;;;;5071789;28;20186;-74
2022/03/13 00:22:33;;;;;;;0.90;0.90;;;0.80;1.00;;;;;;5071789;28;20713;-75
2022/03/13 00:24:59;;;;;;;0.80;0.80;;;0.70;99.90;;;;;;5071904;28;20185;-74
2022/03/13 00:27:26;;;;;;;0.90;0.90;;;0.60;52.90;;;;;;5071598;28;20175;-73
2022/03/13 00:29:51;;;;;;;0.80;0.80;;;0.60;1.00;;;;;;5071022;28;20190;-74
2022/03/13 00:32:17;;;;;;;0.80;0.80;;;0.50;99.90;;;;;;5071646;28;20240;-74
2022/03/13 00:34:43;;;;;;;0.80;0.80;;;0.60;1.00;;;;;;5072289;28;20269;-75
2022/03/13 00:37:10;;;;;;;0.80;0.80;;;0.50;1.00;;;;;;5071321;28;20214;-76
2022/03/13 00:39:36;;;;;;;0.80;0.80;;;0.50;1.00;;;;;;5070738;28;20282;-75
2022/03/13 00:42:02;;;;;;;0.90;0.90;;;0.50;99.90;;;;;;5071784;28;20239;-76
2022/03/13 00:44:28;;;;;;;0.70;0.70;;;0.50;1.00;;;;;;5071419;28;20175;-77
2022/03/13 00:46:53;;;;;;;0.87;0.87;;;0.50;1.00;;;;;;5071504;28;20190;-76
2022/03/13 00:49:19;;;;;;;0.80;0.80;;;0.50;99.90;;;;;;5070590;28;20683;-75
2022/03/13 00:51:44;;;;;;;0.87;0.87;;;0.60;1.00;;;;;;5071171;28;20178;-75
2022/03/13 00:54:10;;;;;;;1.00;1.00;;;0.40;1.00;;;;;;5071009;28;20186;-75
2022/03/13 00:56:35;;;;;;;0.87;0.87;;;0.10;1.00;;;;;;5070637;28;20210;-76
2022/03/13 00:59:01;;;;;;;1.00;1.00;;;0.10;99.90;;;;;;5070392;28;20609;-75
2022/03/13 01:01:26;;;;;;;0.90;0.90;;;0.10;99.90;;;;;;5070727;28;20202;-75
2022/03/13 01:03:53;;;;;;;0.90;0.90;;;0.10;1.00;;;;;;5070817;28;20174;-74
2022/03/13 01:06:20;;;;;;;0.90;0.90;;;0.20;1.00;;;;;;5071007;28;20256;-75
2022/03/13 01:08:47;;;;;;;0.80;0.80;;;0.30;99.90;;;;;;5070841;28;20180;-74
2022/03/13 01:11:18;;;;;;;0.80;0.80;;;0.30;99.90;;;;;;5070427;28;20331;-74
2022/03/13 01:13:44;;;;;;;0.90;0.90;;;0.30;61.90;;;;;;5071037;28;20265;-74
2022/03/13 01:16:15;;;;;;;0.90;0.90;;;0.20;1.00;;;;;;5070512;28;20617;-73
2022/03/13 01:18:55;;;;;;;0.83;0.83;;;0.20;99.90;;;;;;5070599;28;20621;-72
2022/03/13 01:21:22;;;;;;;0.90;0.90;;;0.30;99.90;;;;;;5070356;28;20765;-73
2022/03/13 01:23:59;;;;;;;0.80;0.80;;;0.20;1.00;;;;;;5070865;28;20181;-74
2022/03/13 01:26:25;;;;;;;0.90;0.90;;;0.20;1.00;;;;;;5070585;28;20597;-74
2022/03/13 01:28:51;;;;;;;0.87;0.87;;;0.10;1.00;;;;;;5070276;28;20617;-75
2022/03/13 01:31:22;;;;;;;0.80;0.80;;;0.10;1.00;;;;;;5070237;28;20198;-73
2022/03/13 01:33:48;;;;;;;1.00;1.00;;;0.10;99.90;;;;;;5070350;28;20178;-73
2022/03/13 01:36:13;;;;;;;0.90;0.90;;;-0.10;61.50;;;;;;5070221;28;20220;-73
2022/03/13 01:38:39;;;;;;;0.80;0.80;;;-0.10;99.90;;;;;;5070622;28;20205;-72
2022/03/13 01:41:06;;;;;;;0.80;0.80;;;-0.20;1.00;;;;;;5070008;28;20210;-73
2022/03/13 01:43:31;;;;;;;0.90;0.90;;;-0.30;1.00;;;;;;5070545;28;20177;-74
2022/03/13 01:46:00;;;;;;;0.90;0.90;;;-0.20;1.00;;;;;;5070292;28;20171;-72
2022/03/13 01:48:27;;;;;;;0.90;0.90;;;-0.30;1.00;;;;;;5070572;28;20174;-73
2022/03/13 01:50:53;;;;;;;0.90;0.90;;;-0.20;99.90;;;;;;5069512;28;20607;-72
2022/03/13 01:53:21;;;;;;;0.80;0.80;;;-0.20;99.90;;;;;;5070446;28;20194;-72
2022/03/13 01:55:55;;;;;;;0.90;0.90;;;-0.20;99.90;;;;;;5070389;28;20206;-73
2022/03/13 01:58:21;;;;;;;0.90;0.90;;;-0.30;1.00;;;;;;5070019;28;20166;-74
2022/03/13 02:00:47;;;;;;;0.90;0.90;;;-0.40;99.90;;;;;;5069453;28;20556;-73
2022/03/13 02:03:15;;;;;;;0.80;0.80;;;-0.40;99.90;;;;;;5070271;28;20179;-73
2022/03/13 02:05:40;;;;;;;0.90;0.90;;;-0.50;99.90;;;;;;5069570;28;20558;-73
2022/03/13 02:08:13;;;;;;;0.90;0.90;;;-0.60;1.00;;;;;;5072541;28;20664;-74
2022/03/13 02:10:39;;;;;;;0.90;0.90;;;-0.60;1.00;;;;;;5073492;28;20232;-73
2022/03/13 02:13:04;;;;;;;0.93;0.93;;;-0.60;1.00;;;;;;5076083;28;20178;-73
2022/03/13 02:15:31;;;;;;;0.90;0.90;;;-0.60;49.90;;;;;;5080165;28;20723;-73
2022/03/13 02:18:01;;;;;;;0.90;0.90;;;-0.60;1.00;;;;;;5081340;28;20343;-73
2022/03/13 02:20:27;;;;;;;0.80;0.80;;;-0.60;50.70;;;;;;5081148;28;20687;-74
2022/03/13 02:22:59;;;;;;;0.80;0.80;;;-0.50;99.90;;;;;;5075109;28;20201;-73
2022/03/13 02:25:25;;;;;;;0.90;0.90;;;-0.50;1.00;;;;;;5073874;28;20182;-73
2022/03/13 02:27:51;;;;;;;1.00;1.00;;;-0.60;1.00;;;;;;5074078;28;20258;-73
2022/03/13 02:30:23;;;;;;;0.90;0.90;;;-0.70;1.00;;;;;;5072679;28;20578;-72
2022/03/13 02:32:48;;;;;;;0.80;0.80;;;-0.70;1.00;;;;;;5073510;28;20581;-71
2022/03/13 02:35:17;;;;;;;0.90;0.90;;;-0.70;1.00;;;;;;5073444;28;20227;-72
2022/03/13 02:37:42;;;;;;;0.90;0.90;;;-0.60;99.90;;;;;;5073510;28;20221;-73
2022/03/13 02:40:18;;;;;;;0.90;0.90;;;-0.60;99.90;;;;;;5072561;28;20217;-72
2022/03/13 02:42:44;;;;;;;1.00;1.00;;;-0.70;99.90;;;;;;5073369;28;20627;-72
2022/03/13 02:45:11;;;;;;;0.90;0.90;;;-1.10;49.50;;;;;;5073360;28;20175;-73
2022/03/13 02:47:36;;;;;;;1.00;1.00;;;-1.00;99.90;;;;;;5073468;28;20175;-74
2022/03/13 02:50:03;;;;;;;0.80;0.80;;;-0.90;1.00;;;;;;5072607;28;20209;-72
2022/03/13 02:52:28;;;;;;;0.87;0.87;;;-0.80;99.90;;;;;;5073144;28;20623;-73
2022/03/13 02:54:54;;;;;;;0.90;0.90;;;-0.80;1.00;;;;;;5073163;28;20178;-72
2022/03/13 02:57:19;;;;;;;0.90;0.90;;;-1.00;1.00;;;;;;5072563;28;20252;-72
2022/03/13 02:59:45;;;;;;;0.80;0.80;;;-1.20;49.50;;;;;;5072373;28;20194;-73
2022/03/13 03:02:11;;;;;;;0.80;0.80;;;-1.10;1.00;;;;;;5072966;28;20184;-73
2022/03/13 03:04:37;;;;;;;0.80;0.80;;;-1.10;3.90;;;;;;5091412;22;20228;-76
2022/03/13 03:07:04;;;;;;;0.97;0.97;;;-1.00;99.90;;;;;;5033914;28;20184;-76
2022/03/13 03:09:32;;;;;;;0.90;0.90;;;-1.00;1.00;;;;;;5032936;28;20192;-75
2022/03/13 03:12:00;;;;;;;0.90;0.90;;;-1.20;99.90;;;;;;5034040;28;20181;-73
2022/03/13 03:14:29;;;;;;;0.87;0.87;;;-1.30;1.00;;;;;;5033514;28;20184;-76
2022/03/13 03:16:54;;;;;;;0.90;0.90;;;-1.20;1.00;;;;;;5021016;28;20192;-74
2022/03/13 03:19:20;;;;;;;0.83;0.83;;;-1.20;1.00;;;;;;5053589;28;20160;-74
2022/03/13 03:21:46;;;;;;;0.90;0.90;;;-1.20;99.90;;;;;;5050453;28;20666;-74
2022/03/13 03:24:22;;;;;;;0.87;0.87;;;-1.20;99.90;;;;;;5049314;28;20234;-74
2022/03/13 03:26:48;;;;;;;0.90;0.90;;;-1.20;99.90;;;;;;5044569;28;20642;-73
2022/03/13 03:29:14;;;;;;;0.80;0.80;;;-1.10;1.00;;;;;;5032661;28;20176;-73
2022/03/13 03:31:43;;;;;;;0.90;0.90;;;-1.20;1.00;;;;;;5033132;28;20182;-74
2022/03/13 03:34:14;;;;;;;0.90;0.90;;;-1.20;1.00;;;;;;5032758;28;20263;-73
2022/03/13 03:36:42;;;;;;;0.90;0.90;;;-1.20;99.90;;;;;;5032659;28;20265;-74
2022/03/13 03:39:09;;;;;;;0.90;0.90;;;-1.30;1.00;;;;;;5032430;28;20175;-74
2022/03/13 03:41:35;;;;;;;1.00;1.00;;;-1.30;1.00;;;;;;5032775;28;20184;-74
2022/03/13 03:44:00;;;;;;;0.90;0.90;;;-1.20;1.00;;;;;;5032620;28;20190;-74
2022/03/13 03:46:26;;;;;;;1.00;1.00;;;-1.20;99.90;;;;;;5032544;28;20560;-74
2022/03/13 03:48:51;;;;;;;0.83;0.83;;;-1.30;8.90;;;;;;5031896;28;20238;-75
2022/03/13 03:51:17;;;;;;;0.90;0.90;;;-1.30;1.00;;;;;;5032286;28;20191;-74
2022/03/13 03:53:42;;;;;;;1.00;1.00;;;-1.20;99.90;;;;;;5032512;28;20517;-74
2022/03/13 03:56:08;;;;;;;0.80;0.80;;;-1.20;99.90;;;;;;5032232;28;20219;-74
2022/03/13 03:58:33;;;;;;;0.90;0.90;;;-1.20;1.00;;;;;;5032041;28;20176;-72
2022/03/13 04:00:59;;;;;;;0.90;0.90;;;-1.40;99.90;;;;;;5031132;28;20207;-73
2022/03/13 04:03:25;;;;;;;0.77;0.77;;;-1.30;1.00;;;;;;5031998;28;20225;-74
2022/03/13 04:05:50;;;;;;;0.90;0.90;;;-1.30;1.00;;;;;;5031959;28;20238;-73
2022/03/13 04:08:16;;;;;;;0.90;0.90;;;-1.50;99.90;;;;;;5031982;28;20175;-74
2022/03/13 04:10:42;;;;;;;0.97;0.97;;;-1.30;1.00;;;;;;5031477;28;20225;-74
2022/03/13 04:13:07;;;;;;;0.90;0.90;;;-1.40;99.90;;;;;;5031866;28;20202;-74
2022/03/13 04:15:33;;;;;;;0.90;0.90;;;-1.50;99.90;;;;;;5031929;28;20176;-73
2022/03/13 04:17:58;;;;;;;0.80;0.80;;;-1.50;1.00;;;;;;5031627;28;20681;-74
2022/03/13 04:20:24;;;;;;;0.90;0.90;;;-1.40;99.90;;;;;;5031415;28;20202;-74
2022/03/13 04:22:50;;;;;;;1.00;1.00;;;-1.40;1.00;;;;;;5031974;28;20296;-74
2022/03/13 04:25:16;;;;;;;0.80;0.80;;;-1.40;1.00;;;;;;5031957;28;20267;-74
2022/03/13 04:27:44;;;;;;;0.90;0.90;;;-1.50;1.00;;;;;;5032001;28;20638;-74
2022/03/13 04:30:10;;;;;;;1.00;1.00;;;-1.50;99.90;;;;;;5030615;28;20204;-74
2022/03/13 04:32:35;;;;;;;0.90;0.90;;;-1.60;1.00;;;;;;5032463;28;20184;-75
2022/03/13 04:35:01;;;;;;;0.90;0.90;;;-1.60;1.00;;;;;;5031754;28;20642;-74
2022/03/13 04:37:28;;;;;;;0.80;0.80;;;-1.50;1.00;;;;;;5031343;28;20805;-74
2022/03/13 04:39:53;;;;;;;0.90;0.90;;;-1.60;1.00;;;;;;5030951;28;20275;-75
2022/03/13 04:42:19;;;;;;;0.80;0.80;;;-1.60;1.00;;;;;;5031350;28;20608;-75
2022/03/13 04:44:45;;;;;;;0.90;0.90;;;-1.60;99.90;;;;;;5031102;28;20628;-74
2022/03/13 04:47:11;;;;;;;0.80;0.80;;;-1.60;1.00;;;;;;5031141;28;20180;-74
2022/03/13 04:49:36;;;;;;;0.90;0.90;;;-1.70;1.00;;;;;;5031006;28;20265;-73
2022/03/13 04:52:02;;;;;;;0.90;0.90;;;-1.70;99.90;;;;;;5030912;28;20677;-75
2022/03/13 04:54:28;;;;;;;0.90;0.90;;;-1.70;1.00;;;;;;5031099;28;20180;-74
2022/03/13 04:56:53;;;;;;;0.90;0.90;;;-1.60;99.90;;;;;;5030892;28;20247;-73
2022/03/13 04:59:19;;;;;;;0.90;0.90;;;-1.60;99.90;;;;;;5030434;28;20186;-75
2022/03/13 05:01:44;;;;;;;0.90;0.90;;;-1.70;1.00;;;;;;5031187;28;20184;-75
2022/03/13 05:04:10;;;;;;;0.90;0.90;;;-1.70;1.00;;;;;;5031426;28;20172;-75
2022/03/13 05:06:35;;;;;;;0.70;0.70;;;-1.80;99.90;;;;;;5031151;28;20203;-73
2022/03/13 05:09:01;;;;;;;0.90;0.90;;;-1.70;99.90;;;;;;5031036;28;20560;-74
2022/03/13 05:11:27;;;;;;;0.80;0.80;;;-1.80;1.00;;;;;;5031527;28;20204;-74
2022/03/13 05:13:53;;;;;;;0.90;0.90;;;-1.70;1.00;;;;;;5031434;28;20306;-74
2022/03/13 05:16:18;;;;;;;0.90;0.90;;;-1.80;1.00;;;;;;5031230;28;20204;-75
2022/03/13 05:18:44;;;;;;;0.80;0.80;;;-1.80;94.00;;;;;;5031227;28;20639;-74
2022/03/13 05:21:09;;;;;;;0.80;0.80;;;-1.80;1.00;;;;;;5030818;28;20192;-74
2022/03/13 05:23:35;;;;;;;0.83;0.83;;;-1.80;1.00;;;;;;5031154;28;20175;-74
2022/03/13 05:26:01;;;;;;;0.80;0.80;;;-1.80;1.00;;;;;;5031100;28;20554;-74
2022/03/13 05:28:27;;;;;;;0.80;0.80;;;-1.70;99.90;;;;;;5031218;28;20187;-74
2022/03/13 05:30:53;;;;;;;0.90;0.90;;;-1.70;1.00;;;;;;5030472;28;20302;-74
2022/03/13 05:33:18;;;;;;;0.90;0.90;;;-1.70;1.00;;;;;;5031001;28;20184;-74
2022/03/13 05:35:44;;;;;;;0.83;0.83;;;-2.30;1.00;;;;;;5031417;28;20544;-74
2022/03/13 05:38:09;;;;;;;0.90;0.90;;;-1.80;99.90;;;;;;5031148;28;20706;-74
2022/03/13 05:40:35;;;;;;;0.80;0.80;;;-1.90;1.00;;;;;;5030632;28;20206;-74
2022/03/13 05:43:02;;;;;;;0.90;0.90;;;-1.90;99.90;;;;;;5035214;28;20598;-74
2022/03/13 05:45:30;;;;;;;0.80;0.80;;;-1.80;1.00;;;;;;5035138;28;20183;-74
2022/03/13 05:48:00;;;;;;;0.90;0.90;;;-1.70;99.90;;;;;;5035042;28;20187;-74
2022/03/13 05:50:28;;;;;;;0.80;0.80;;;-1.70;99.90;;;;;;5034917;28;20257;-74
2022/03/13 05:52:56;;;;;;;0.90;0.90;;;-1.70;1.00;;;;;;5035410;28;20180;-74
2022/03/13 05:55:24;;;;;;;0.90;0.90;;;-1.60;1.00;;;;;;5017390;28;20646;-74
2022/03/13 05:57:49;;;;;;;0.83;0.83;;;-1.60;99.90;;;;;;5039092;28;20214;-74
2022/03/13 06:00:16;;;;;;;0.83;0.83;;;-1.50;1.00;;;;;;5037957;28;20677;-75
2022/03/13 06:02:43;;;;;;;0.87;0.87;;;-1.40;69.40;;;;;;5038000;28;20257;-74
2022/03/13 06:05:10;;;;;;;0.87;0.87;;;-1.10;1.00;;;;;;5037345;28;20191;-75
2022/03/13 06:07:39;;;;;;;0.83;0.83;;;-1.00;1.00;;;;;;5035544;28;20226;-74
2022/03/13 06:10:08;;;;;;;0.80;0.80;;;-1.00;1.00;;;;;;5034187;28;20283;-74
2022/03/13 06:12:35;;;;;;;0.80;0.80;;;-1.10;1.00;;;;;;5035127;28;20242;-75
2022/03/13 06:15:01;;;;;;;0.83;0.83;;;-1.10;1.00;;;;;;5034459;28;20182;-74
2022/03/13 06:17:27;;;;;;;0.90;0.90;;;-1.00;1.00;;;;;;5034495;28;20268;-73
2022/03/13 06:19:55;;;;;;;0.80;0.80;;;-0.20;1.00;;;;;;5033961;28;20295;-75
2022/03/13 06:22:21;;;;;;;0.87;0.87;;;-0.50;1.00;;;;;;5034462;28;20176;-74
2022/03/13 06:24:47;;;;;;;0.90;0.90;;;-0.30;36.40;;;;;;5034424;28;20182;-75
2022/03/13 06:27:12;;;;;;;0.90;0.90;;;0.00;99.90;;;;;;5034241;28;20208;-74
2022/03/13 06:29:39;;;;;;;0.90;0.90;;;0.20;99.90;;;;;;5033744;28;20688;-74
2022/03/13 06:32:05;;;;;;;0.90;0.90;;;0.20;1.00;;;;;;5034318;28;20176;-74
2022/03/13 06:34:31;;;;;;;0.80;0.80;;;0.30;1.00;;;;;;5034372;28;20183;-74
2022/03/13 06:36:56;;;;;;;0.90;0.90;;;0.30;1.00;;;;;;5033198;28;20176;-76
2022/03/13 06:39:22;;;;;;;0.80;0.80;;;0.30;99.90;;;;;;5033143;28;20164;-74
2022/03/13 06:41:48;;;;;;;0.80;0.80;;;0.20;99.90;;;;;;5033712;28;20171;-74
2022/03/13 06:44:13;;;;;;;0.90;0.90;;;0.00;1.00;;;;;;5033201;28;20642;-75
2022/03/13 06:46:39;;;;;;;0.80;0.80;;;0.40;1.00;;;;;;5033477;28;20246;-74
2022/03/13 06:49:05;;;;;;;0.80;0.80;;;0.70;1.00;;;;;;5027111;28;20176;-74
2022/03/13 06:51:32;;;;;;;0.80;0.80;;;0.90;1.00;;;;;;5031012;28;20180;-74
2022/03/13 06:53:58;;;;;;;0.70;0.70;;;1.10;99.90;;;;;;5033582;28;20227;-76
2022/03/13 06:56:24;;;;;;;0.90;0.90;;;1.70;91.20;;;;;;5033778;28;20409;-74
2022/03/13 06:58:49;;;;;;;0.87;0.87;;;2.00;1.00;;;;;;5033728;28;20411;-77
2022/03/13 07:01:15;;;;;;;0.80;0.80;;;1.50;99.90;;;;;;5033861;28;20204;-76
2022/03/13 07:03:42;;;;;;;0.80;0.80;;;1.90;1.00;;;;;;5033878;28;20677;-74
2022/03/13 07:06:07;;;;;;;0.70;0.70;;;2.70;60.40;;;;;;5033675;28;20265;-76
2022/03/13 07:08:33;;;;;;;0.70;0.70;;;3.00;1.00;;;;;;5034311;28;20629;-76
2022/03/13 07:11:00;;;;;;;0.70;0.70;;;3.80;99.90;;;;;;5032931;28;20203;-76
2022/03/13 07:13:31;;;;;;;0.60;0.60;;;5.40;1.00;;;;;;5033624;28;20569;-76
2022/03/13 07:16:01;;;;;;;0.53;0.53;;;6.60;1.00;;;;;;5033448;28;20646;-75
2022/03/13 07:18:27;;;;;;;0.60;0.60;;;6.50;1.00;;;;;;5034062;28;20176;-76
2022/03/13 07:20:53;;;;;;;0.60;0.60;;;7.20;1.00;;;;;;5009084;28;20569;-75
2022/03/13 07:23:19;;;;;;;0.50;0.50;;;7.40;1.00;;;;;;5023988;28;20664;-76
2022/03/13 07:25:44;;;;;;;0.60;0.60;;;7.60;1.00;;;;;;5023944;28;20170;-76
2022/03/13 07:28:10;;;;;;;0.50;0.50;;;8.00;1.00;;;;;;5022771;28;20200;-77
2022/03/13 07:30:35;;;;;;;0.40;0.40;;;7.80;1.00;;;;;;5022412;28;20225;-76
2022/03/13 07:33:01;;;;;;;0.60;0.60;;;7.60;1.00;;;;;;5024248;28;20179;-76
2022/03/13 07:35:27;;;;;;;0.40;0.40;;;7.90;1.00;;;;;;5021871;28;20179;-77
2022/03/13 07:37:53;;;;;;;0.40;0.40;;;8.60;1.00;;;;;;5023187;28;20229;-76
2022/03/13 07:40:19;;;;;;;0.47;0.47;;;9.10;1.00;;;;;;5017968;28;20200;-76
2022/03/13 07:42:44;;;;;;;0.33;0.33;;;7.80;1.00;;;;;;5013504;28;20172;-76
2022/03/13 07:45:10;;;;;;;0.50;0.50;;;8.30;1.00;;;;;;5013400;28;20176;-76
2022/03/13 07:47:36;;;;;;;0.40;0.40;;;8.80;1.00;;;;;;5025691;28;20219;-77
2022/03/13 07:50:03;;;;;;;0.30;0.30;;;9.10;1.00;;;;;;5027580;28;20208;-77
2022/03/13 07:52:28;;;;;;;0.40;0.40;;;9.50;1.00;;;;;;5015948;28;20180;-76
2022/03/13 07:54:54;;;;;;;0.30;0.30;;;9.60;1.00;;;;;;5013154;28;20172;-75
2022/03/13 07:57:19;;;;;;;0.30;0.30;;;10.10;1.00;;;;;;5013015;28;20180;-75
2022/03/13 07:59:47;;;;;;;0.40;0.40;;;9.90;1.00;;;;;;5012823;28;20185;-75
2022/03/13 08:02:12;;;;;;;0.40;0.40;;;10.00;1.00;;;;;;5013221;28;20215;-74
2022/03/13 08:04:38;;;;;;;0.40;0.40;;;10.20;1.00;;;;;;5013236;28;20208;-75
2022/03/13 08:07:03;;;;;;;0.40;0.40;;;10.50;1.00;;;;;;5015514;28;20298;-75
2022/03/13 08:09:29;;;;;;;0.30;0.30;;;10.50;1.00;;;;;;5025378;28;20528;-76
2022/03/13 08:11:55;;;;;;;0.30;0.30;;;10.60;1.00;;;;;;5033298;28;20255;-76
2022/03/13 08:14:20;;;;;;;0.30;0.30;;;10.90;1.00;;;;;;5033172;28;20215;-76
2022/03/13 08:16:46;;;;;;;0.50;0.50;;;10.90;1.00;;;;;;5033508;28;20263;-76
2022/03/13 08:19:11;;;;;;;0.40;0.40;;;10.90;1.00;;;;;;5023791;28;20180;-76
2022/03/13 08:21:38;;;;;;;0.30;0.30;;;10.90;1.00;;;;;;5021015;28;20175;-76
2022/03/13 08:24:07;;;;;;;0.40;0.40;;;11.90;1.00;;;;;;5022848;28;20255;-76
2022/03/13 08:26:39;;;;;;;0.43;0.43;;;12.10;1.00;;;;;;5032754;28;20211;-75
2022/03/13 08:29:08;;;;;;;0.30;0.30;;;11.80;1.00;;;;;;5032372;28;20263;-77
2022/03/13 08:31:34;;;;;;;0.33;0.33;;;12.40;1.00;;;;;;5014588;28;20183;-76
2022/03/13 08:34:00;;;;;;;0.30;0.30;;;13.10;1.00;;;;;;5021551;28;20195;-73
2022/03/13 08:36:26;;;;;;;0.30;0.30;;;13.20;1.00;;;;;;5006090;28;20179;-77
2022/03/13 08:38:52;;;;;;;0.33;0.33;;;12.90;1.00;;;;;;5023163;28;20176;-74
2022/03/13 08:41:18;;;;;;;0.30;0.30;;;12.80;1.00;;;;;;5021920;28;20250;-76
2022/03/13 08:43:44;;;;;;;0.30;0.30;;;13.10;1.00;;;;;;5022852;28;20176;-76
2022/03/13 08:46:12;;;;;;;0.23;0.23;;;13.50;1.00;;;;;;5021080;28;20541;-76
2022/03/13 08:48:38;;;;;;;0.30;0.30;;;13.30;1.00;;;;;;5021156;28;20555;-74
2022/03/13 08:51:04;;;;;;;0.30;0.30;;;14.10;1.00;;;;;;5011567;28;20283;-75
2022/03/13 08:53:30;;;;;;;0.20;0.20;;;13.80;1.00;;;;;;5012223;28;20668;-75
2022/03/13 08:55:55;;;;;;;0.30;0.30;;;14.60;1.00;;;;;;5012253;28;20188;-76
2022/03/13 08:58:21;;;;;;;0.30;0.30;;;14.00;1.00;;;;;;5012038;28;20584;-75
2022/03/13 09:00:47;;;;;;;0.23;0.23;;;14.30;1.00;;;;;;5011164;28;20231;-76
2022/03/13 09:03:13;;;;;;;0.30;0.30;;;14.60;1.00;;;;;;5011890;28;20278;-75
2022/03/13 09:05:39;;;;;;;0.30;0.30;;;14.40;1.00;;;;;;5011575;28;20188;-74
2022/03/13 09:08:05;;;;;;;0.30;0.30;;;15.00;1.00;;;;;;5012161;28;20220;-75
2022/03/13 09:10:30;;;;;;;0.30;0.30;;;15.00;1.00;;;;;;5011217;28;20231;-78
2022/03/13 09:12:56;;;;;;;0.30;0.30;;;15.20;1.00;;;;;;5012391;28;20180;-76
2022/03/13 09:15:22;;;;;;;0.30;0.30;;;14.60;1.00;;;;;;5028368;28;20171;-73
2022/03/13 09:17:53;;;;;;;0.30;0.30;;;14.90;1.00;;;;;;5031034;28;20666;-76
2022/03/13 09:20:20;;;;;;;0.23;0.23;;;15.10;1.00;;;;;;5030813;28;20698;-76
2022/03/13 09:22:45;;;;;;;0.30;0.30;;;14.90;1.00;;;;;;5031746;28;20182;-75
2022/03/13 09:25:11;;;;;;;0.30;0.30;;;14.50;1.00;;;;;;5027973;28;20172;-75
2022/03/13 09:27:36;;;;;;;0.27;0.27;;;14.70;1.00;;;;;;5022673;28;20173;-74
2022/03/13 09:30:02;;;;;;;0.33;0.33;;;15.20;1.00;;;;;;5027948;28;20194;-76
2022/03/13 09:32:28;;;;;;;0.30;0.30;;;15.40;1.00;;;;;;5031671;28;20177;-76
2022/03/13 09:34:54;;;;;;;0.33;0.33;;;15.00;1.00;;;;;;5031333;28;20302;-76
2022/03/13 09:37:20;;;;;;;0.30;0.30;;;15.40;1.00;;;;;;5031067;28;20214;-74
2022/03/13 09:39:46;;;;;;;0.30;0.30;;;15.60;1.00;;;;;;5030397;28;20700;-75
2022/03/13 09:42:12;;;;;;;0.30;0.30;;;15.80;1.00;;;;;;5031359;28;20225;-77
2022/03/13 09:44:38;;;;;;;0.30;0.30;;;15.90;1.00;;;;;;5030942;28;20266;-74
2022/03/13 09:47:05;;;;;;;0.30;0.30;;;16.00;1.00;;;;;;5023767;28;20183;-75
2022/03/13 09:49:31;;;;;;;0.30;0.30;;;16.50;1.00;;;;;;5020689;28;20678;-75
2022/03/13 09:51:56;;;;;;;0.30;0.30;;;16.70;1.00;;;;;;5023807;28;20176;-75
2022/03/13 09:54:22;;;;;;;0.40;0.40;;;16.20;1.00;;;;;;5021252;28;20183;-76
2022/03/13 09:56:48;;;;;;;0.40;0.40;;;16.50;1.00;;;;;;5020824;28;20690;-76
2022/03/13 09:59:13;;;;;;;0.40;0.40;;;16.40;1.00;;;;;;5018725;28;20662;-74
2022/03/13 10:01:39;;;;;;;0.30;0.30;;;16.10;1.00;;;;;;5023108;28;20167;-76
2022/03/13 10:04:05;;;;;;;0.40;0.40;;;16.00;1.00;;;;;;5019216;28;20642;-78
2022/03/13 10:06:33;;;;;;;0.40;0.40;;;16.60;1.00;;;;;;5020895;28;20188;-76
2022/03/13 10:08:59;;;;;;;0.30;0.30;;;16.70;1.00;;;;;;5019672;28;20180;-76
2022/03/13 10:11:33;;;;;;;0.40;0.40;;;16.90;1.00;;;;;;5020219;28;20219;-75
2022/03/13 10:14:10;;;;;;;0.30;0.30;;;15.60;1.00;;;;;;5028245;28;20262;-75
2022/03/13 10:16:37;;;;;;;0.23;0.23;;;15.60;1.00;;;;;;5031051;28;20871;-75
2022/03/13 10:19:16;;;;;;;0.30;0.30;;;17.30;1.00;;;;;;5030503;28;20180;-75
2022/03/13 10:22:02;;;;;;;0.30;0.30;;;18.50;1.00;;;;;;5031180;28;20222;-75
2022/03/13 10:24:29;;;;;;;0.30;0.30;;;18.60;1.00;;;;;;5030772;28;20179;-75
2022/03/13 10:27:08;;;;;;;0.40;0.40;;;19.00;1.00;;;;;;5030873;28;20171;-75
2022/03/13 10:29:34;;;;;;;0.30;0.30;;;18.60;1.00;;;;;;5033583;28;20192;-76
2022/03/13 10:32:00;;;;;;;0.50;0.50;;;18.40;1.00;;;;;;5030933;28;20593;-74
2022/03/13 10:34:26;;;;;;;0.27;0.27;;;17.80;1.00;;;;;;5026487;28;20632;-75
2022/03/13 10:36:52;;;;;;;0.30;0.30;;;18.70;1.00;;;;;;5034569;28;20282;-76
2022/03/13 10:39:19;;;;;;;0.30;0.30;;;19.10;1.00;;;;;;5027629;28;20310;-77
2022/03/13 10:41:45;;;;;;;0.40;0.40;;;17.70;1.00;;;;;;5035164;28;20535;-77
2022/03/13 10:44:13;;;;;;;0.20;0.20;;;18.00;1.00;;;;;;5024391;28;20198;-75
2022/03/13 10:46:40;;;;;;;0.20;0.20;;;19.20;1.00;;;;;;5023761;28;20669;-76
2022/03/13 10:49:08;;;;;;;0.37;0.37;;;19.10;1.00;;;;;;5025027;28;20191;-76
2022/03/13 10:51:48;;;;;;;0.50;0.50;;;19.50;1.00;;;;;;5024139;28;20183;-76
2022/03/13 10:54:32;;;;;;;0.30;0.30;;;18.40;1.00;;;;;;5017568;28;20187;-77
2022/03/13 10:57:09;;;;;;;0.37;0.37;;;18.50;1.00;;;;;;5033168;28;20287;-74
2022/03/13 10:59:36;;;;;;;0.30;0.30;;;19.10;1.00;;;;;;5033398;28;20245;-75
2022/03/13 11:02:22;;;;;;;0.20;0.20;;;18.60;1.00;;;;;;5033874;28;20184;-75
2022/03/13 11:04:52;;;;;;;0.23;0.23;;;18.90;1.00;;;;;;5033831;28;20666;-76
2022/03/13 11:07:19;;;;;;;0.30;0.30;;;19.20;1.00;;;;;;5034194;28;20593;-75
2022/03/13 11:09:46;;;;;;;0.40;0.40;;;20.00;1.00;;;;;;5033641;28;20192;-74
2022/03/13 11:12:17;;;;;;;0.33;0.33;;;20.50;1.00;;;;;;5033779;28;20187;-75
2022/03/13 11:14:45;;;;;;;0.30;0.30;;;20.30;1.00;;;;;;5033824;28;20172;-76
2022/03/13 11:17:11;;;;;;;0.30;0.30;;;19.70;1.00;;;;;;5033796;28;20287;-76
2022/03/13 11:19:38;;;;;;;0.30;0.30;;;20.20;1.00;;;;;;5015563;28;20286;-75
2022/03/13 11:22:04;;;;;;;0.30;0.30;;;19.20;1.00;;;;;;5014799;28;20172;-75
2022/03/13 11:24:30;;;;;;;0.37;0.37;;;19.70;1.00;;;;;;5014929;28;20176;-75
2022/03/13 11:26:56;;;;;;;0.30;0.30;;;20.60;1.00;;;;;;5016618;28;20317;-75
2022/03/13 11:29:44;;;;;;;0.40;0.40;;;21.20;1.00;;;;;;5013934;28;20176;-75
2022/03/13 11:32:27;;;;;;;0.30;0.30;;;21.60;1.00;;;;;;5016661;28;20207;-76
2022/03/13 11:35:18;;;;;;;0.30;0.30;;;20.60;1.00;;;;;;5020257;28;20168;-76
2022/03/13 11:38:05;;;;;;;0.30;0.30;;;21.00;1.00;;;;;;5014659;28;20204;-75
2022/03/13 11:40:34;;;;;;;0.27;0.27;;;21.50;1.00;;;;;;5014148;28;20224;-76
2022/03/13 11:43:20;;;;;;;0.40;0.40;;;21.40;1.00;;;;;;5033386;28;20180;-75
2022/03/13 11:45:55;;;;;;;0.30;0.30;;;21.00;1.00;;;;;;5033524;28;20179;-75
2022/03/13 11:48:21;;;;;;;0.30;0.30;;;21.60;1.00;;;;;;5033891;28;20180;-73
2022/03/13 11:50:57;;;;;;;0.30;0.30;;;22.20;1.00;;;;;;5034507;28;20207;-75
2022/03/13 11:53:27;;;;;;;0.30;0.30;;;22.60;1.00;;;;;;5033466;28;20667;-76
2022/03/13 11:56:10;;;;;;;0.30;0.30;;;22.10;1.00;;;;;;5033694;28;20558;-75
2022/03/13 11:58:41;;;;;;;0.33;0.33;;;20.90;1.00;;;;;;5033162;28;20325;-76
2022/03/13 12:01:09;;;;;;;0.40;0.40;;;20.80;1.00;;;;;;5032731;28;20200;-76
2022/03/13 12:03:34;;;;;;;0.30;0.30;;;21.10;1.00;;;;;;5033272;28;20376;-75
2022/03/13 12:06:00;;;;;;;0.40;0.40;;;22.40;1.00;;;;;;5032936;28;20824;-76
2022/03/13 12:09:03;;;;;;;0.20;0.20;;;21.60;1.00;;;;;;5032566;28;20172;-75
2022/03/13 12:11:43;;;;;;;0.30;0.30;;;21.60;1.00;;;;;;5032568;28;20194;-76
2022/03/13 12:14:10;;;;;;;0.37;0.37;;;22.20;1.00;;;;;;5032708;28;20175;-76
2022/03/13 12:16:37;;;;;;;0.23;0.23;;;23.40;1.00;;;;;;5033204;28;20268;-76
2022/03/13 12:19:03;;;;;;;0.40;0.40;;;22.90;1.00;;;;;;5032226;28;20171;-76
2022/03/13 12:21:30;;;;;;;0.33;0.33;;;23.70;1.00;;;;;;5032551;28;20176;-76
2022/03/13 12:24:18;;;;;;;0.30;0.30;;;23.80;1.00;;;;;;5033079;28;20180;-77
2022/03/13 12:26:45;;;;;;;0.33;0.33;;;22.60;1.00;;;;;;5032328;28;20638;-77
2022/03/13 12:29:19;;;;;;;0.30;0.30;;;22.40;1.00;;;;;;5032018;28;20187;-74
2022/03/13 12:31:48;;;;;;;0.30;0.30;;;22.50;1.00;;;;;;5033217;28;20187;-76
2022/03/13 12:34:22;;;;;;;0.30;0.30;;;22.90;1.00;;;;;;5032265;28;20218;-74
2022/03/13 12:36:49;;;;;;;0.20;0.20;;;22.90;1.00;;;;;;5032139;28;20203;-76
2022/03/13 12:39:15;;;;;;;0.40;0.40;;;22.90;1.00;;;;;;5031522;28;20180;-76
2022/03/13 12:41:44;;;;;;;0.20;0.20;;;22.00;1.00;;;;;;5032357;28;20178;-75
2022/03/13 12:44:12;;;;;;;0.30;0.30;;;22.60;1.00;;;;;;5033082;28;20184;-75
2022/03/13 12:46:39;;;;;;;0.40;0.40;;;22.20;1.00;;;;;;5031791;28;20225;-74
2022/03/13 12:49:12;;;;;;;0.40;0.40;;;22.10;1.00;;;;;;5031247;28;20650;-74
2022/03/13 12:51:44;;;;;;;0.30;0.30;;;22.50;1.00;;;;;;5031219;28;20191;-76
2022/03/13 12:54:22;;;;;;;0.30;0.30;;;23.20;1.00;;;;;;5031845;28;20602;-75
2022/03/13 12:56:53;;;;;;;0.30;0.30;;;23.00;1.00;;;;;;5031727;28;20286;-75
2022/03/13 12:59:32;;;;;;;0.30;0.30;;;23.50;1.00;;;;;;5031284;28;20737;-75